Terminal Aerodrome Forecast
Issued by NWS

Home | Current Version | Previous Version | Text Only | Print | Product List | Glossary On
Versions: 1 2 3 4 5 6 7 8 9 10 11 12 13 14 15
000
FTUS44 KLZK 251140
TAFBPK
TAF
KBPK 251140Z 2512/2612 VRB04KT P6SM FEW100 BKN250
     FM251700 20008KT P6SM SCT050 BKN100
     FM260000 34008KT P6SM VCSH OVC050 PROB30 2600/2606 6SM -TSRA
      BKN035CB=

USA.gov is the U.S. government's official web portal to all federal, state and local government web resources and services.